sensor_id;sensor_type;location;lat;lon;timestamp;temperature;humidity
8633;DHT22;4354;49.832;10.746;2022-08-06T00:02:24;17.70;99.90
8633;DHT22;4354;49.832;10.746;2022-08-06T00:04:59;17.70;99.90
8633;DHT22;4354;49.832;10.746;2022-08-06T00:07:27;17.60;99.90
8633;DHT22;4354;49.832;10.746;2022-08-06T00:10:11;17.60;99.90
8633;DHT22;4354;49.832;10.746;2022-08-06T00:12:39;17.50;99.90
8633;DHT22;4354;49.832;10.746;2022-08-06T00:15:07;17.50;99.90
8633;DHT22;4354;49.832;10.746;2022-08-06T00:17:43;17.40;99.90
8633;DHT22;4354;49.832;10.746;2022-08-06T00:20:15;17.30;99.90
8633;DHT22;4354;49.832;10.746;2022-08-06T00:22:55;17.30;99.90
8633;DHT22;4354;49.832;10.746;2022-08-06T00:25:25;17.20;99.90
8633;DHT22;4354;49.832;10.746;2022-08-06T00:27:54;17.20;99.90
8633;DHT22;4354;49.832;10.746;2022-08-06T00:30:21;17.20;99.90
8633;DHT22;4354;49.832;10.746;2022-08-06T00:32:49;17.10;99.90
8633;DHT22;4354;49.832;10.746;2022-08-06T00:35:20;17.20;99.90
8633;DHT22;4354;49.832;10.746;2022-08-06T00:37:54;17.20;99.90
8633;DHT22;4354;49.832;10.746;2022-08-06T00:40:28;17.20;99.90
8633;DHT22;4354;49.832;10.746;2022-08-06T00:42:58;17.20;99.90
8633;DHT22;4354;49.832;10.746;2022-08-06T00:45:29;16.90;99.90
8633;DHT22;4354;49.832;10.746;2022-08-06T00:47:57;17.20;99.90
8633;DHT22;4354;49.832;10.746;2022-08-06T00:50:32;17.20;99.90
8633;DHT22;4354;49.832;10.746;2022-08-06T00:53:01;17.20;99.90
8633;DHT22;4354;49.832;10.746;2022-08-06T00:55:30;17.10;99.90
8633;DHT22;4354;49.832;10.746;2022-08-06T00:58:04;17.10;99.90
8633;DHT22;4354;49.832;10.746;2022-08-06T01:00:33;17.00;99.90
8633;DHT22;4354;49.832;10.746;2022-08-06T01:03:04;17.00;99.90
8633;DHT22;4354;49.832;10.746;2022-08-06T01:05:31;16.90;99.90
8633;DHT22;4354;49.832;10.746;2022-08-06T01:08:18;16.80;99.90
8633;DHT22;4354;49.832;10.746;2022-08-06T01:10:45;16.70;99.90
8633;DHT22;4354;49.832;10.746;2022-08-06T01:13:17;16.60;99.90
8633;DHT22;4354;49.832;10.746;2022-08-06T01:16:22;16.60;99.90
8633;DHT22;4354;49.832;10.746;2022-08-06T01:31:03;16.50;99.90
8633;DHT22;4354;49.832;10.746;2022-08-06T01:33:38;16.50;99.90
8633;DHT22;4354;49.832;10.746;2022-08-06T01:36:19;16.50;99.90
8633;DHT22;4354;49.832;10.746;2022-08-06T01:38:56;16.50;99.90
8633;DHT22;4354;49.832;10.746;2022-08-06T01:41:52;16.40;99.90
8633;DHT22;4354;49.832;10.746;2022-08-06T01:44:33;16.30;99.90
8633;DHT22;4354;49.832;10.746;2022-08-06T01:47:11;16.20;99.90
8633;DHT22;4354;49.832;10.746;2022-08-06T01:49:50;16.10;99.90
8633;DHT22;4354;49.832;10.746;2022-08-06T01:52:31;16.10;99.90
8633;DHT22;4354;49.832;10.746;2022-08-06T01:55:00;16.10;99.90
8633;DHT22;4354;49.832;10.746;2022-08-06T01:57:29;16.10;99.90
8633;DHT22;4354;49.832;10.746;2022-08-06T02:00:19;16.20;99.90
8633;DHT22;4354;49.832;10.746;2022-08-06T02:02:58;16.10;99.90
8633;DHT22;4354;49.832;10.746;2022-08-06T02:05:27;16.00;99.90
8633;DHT22;4354;49.832;10.746;2022-08-06T02:07:58;15.90;99.90
8633;DHT22;4354;49.832;10.746;2022-08-06T02:10:48;16.00;99.90
8633;DHT22;4354;49.832;10.746;2022-08-06T02:13:17;16.00;99.90
8633;DHT22;4354;49.832;10.746;2022-08-06T02:15:45;15.90;99.90
8633;DHT22;4354;49.832;10.746;2022-08-06T02:18:27;15.80;99.90
8633;DHT22;4354;49.832;10.746;2022-08-06T02:21:15;15.70;99.90
8633;DHT22;4354;49.832;10.746;2022-08-06T02:23:59;15.60;99.90
8633;DHT22;4354;49.832;10.746;2022-08-06T02:26:27;15.50;99.90
8633;DHT22;4354;49.832;10.746;2022-08-06T02:28:59;15.60;99.90
8633;DHT22;4354;49.832;10.746;2022-08-06T02:31:26;15.70;99.90
8633;DHT22;4354;49.832;10.746;2022-08-06T02:33:53;15.80;99.90
8633;DHT22;4354;49.832;10.746;2022-08-06T02:36:42;15.90;99.90
8633;DHT22;4354;49.832;10.746;2022-08-06T02:39:22;16.00;99.90
8633;DHT22;4354;49.832;10.746;2022-08-06T02:42:42;16.10;99.90
8633;DHT22;4354;49.832;10.746;2022-08-06T02:45:33;16.10;99.90
8633;DHT22;4354;49.832;10.746;2022-08-06T02:48:18;16.20;99.90
8633;DHT22;4354;49.832;10.746;2022-08-06T02:50:57;16.30;99.90
8633;DHT22;4354;49.832;10.746;2022-08-06T02:53:33;16.30;99.90
8633;DHT22;4354;49.832;10.746;2022-08-06T02:56:22;16.40;99.90
8633;DHT22;4354;49.832;10.746;2022-08-06T02:58:54;16.50;99.90
8633;DHT22;4354;49.832;10.746;2022-08-06T03:01:35;16.50;99.90
8633;DHT22;4354;49.832;10.746;2022-08-06T03:04:09;16.60;99.90
8633;DHT22;4354;49.832;10.746;2022-08-06T03:06:41;16.60;99.90
8633;DHT22;4354;49.832;10.746;2022-08-06T03:09:11;16.60;99.90
8633;DHT22;4354;49.832;10.746;2022-08-06T03:11:42;16.60;99.90
8633;DHT22;4354;49.832;10.746;2022-08-06T03:14:15;16.70;99.90
8633;DHT22;4354;49.832;10.746;2022-08-06T03:17:03;16.70;99.90
8633;DHT22;4354;49.832;10.746;2022-08-06T03:19:33;16.60;99.90
8633;DHT22;4354;49.832;10.746;2022-08-06T03:22:22;16.50;99.90
8633;DHT22;4354;49.832;10.746;2022-08-06T03:25:10;16.30;99.90
8633;DHT22;4354;49.832;10.746;2022-08-06T03:27:40;16.20;99.90
8633;DHT22;4354;49.832;10.746;2022-08-06T03:30:15;16.10;99.90
8633;DHT22;4354;49.832;10.746;2022-08-06T03:33:01;16.00;99.90
8633;DHT22;4354;49.832;10.746;2022-08-06T03:35:34;15.90;99.90
8633;DHT22;4354;49.832;10.746;2022-08-06T03:38:16;15.90;99.90
8633;DHT22;4354;49.832;10.746;2022-08-06T03:40:47;15.90;99.90
8633;DHT22;4354;49.832;10.746;2022-08-06T03:43:15;15.90;99.90
8633;DHT22;4354;49.832;10.746;2022-08-06T03:46:01;16.00;99.90
8633;DHT22;4354;49.832;10.746;2022-08-06T03:48:32;16.00;99.90
8633;DHT22;4354;49.832;10.746;2022-08-06T03:51:08;15.90;99.90
8633;DHT22;4354;49.832;10.746;2022-08-06T03:53:38;15.90;99.90
8633;DHT22;4354;49.832;10.746;2022-08-06T03:56:22;15.90;99.90
8633;DHT22;4354;49.832;10.746;2022-08-06T03:59:00;15.90;99.90
8633;DHT22;4354;49.832;10.746;2022-08-06T04:01:34;15.80;99.90
8633;DHT22;4354;49.832;10.746;2022-08-06T04:04:18;15.80;99.90
8633;DHT22;4354;49.832;10.746;2022-08-06T04:06:57;15.70;99.90
8633;DHT22;4354;49.832;10.746;2022-08-06T04:09:26;15.60;99.90
8633;DHT22;4354;49.832;10.746;2022-08-06T04:12:14;15.50;99.90
8633;DHT22;4354;49.832;10.746;2022-08-06T04:15:03;15.30;99.90
8633;DHT22;4354;49.832;10.746;2022-08-06T04:17:51;15.30;99.90
8633;DHT22;4354;49.832;10.746;2022-08-06T04:20:23;15.10;99.90
8633;DHT22;4354;49.832;10.746;2022-08-06T04:23:09;15.20;99.90
8633;DHT22;4354;49.832;10.746;2022-08-06T04:25:41;15.20;99.90
8633;DHT22;4354;49.832;10.746;2022-08-06T04:28:10;15.30;99.90
8633;DHT22;4354;49.832;10.746;2022-08-06T04:30:39;15.30;99.90
8633;DHT22;4354;49.832;10.746;2022-08-06T04:33:18;15.30;99.90
8633;DHT22;4354;49.832;10.746;2022-08-06T04:36:01;15.30;99.90
8633;DHT22;4354;49.832;10.746;2022-08-06T04:38:50;15.30;99.90
8633;DHT22;4354;49.832;10.746;2022-08-06T04:41:18;15.40;99.90
8633;DHT22;4354;49.832;10.746;2022-08-06T04:43:46;15.50;99.90
8633;DHT22;4354;49.832;10.746;2022-08-06T04:46:21;15.50;99.90
8633;DHT22;4354;49.832;10.746;2022-08-06T04:48:49;15.50;99.90
8633;DHT22;4354;49.832;10.746;2022-08-06T04:51:23;15.60;99.90
8633;DHT22;4354;49.832;10.746;2022-08-06T04:54:10;15.60;99.90
8633;DHT22;4354;49.832;10.746;2022-08-06T04:56:38;15.50;99.90
8633;DHT22;4354;49.832;10.746;2022-08-06T04:59:16;15.50;99.90
8633;DHT22;4354;49.832;10.746;2022-08-06T05:01:45;15.60;99.90
8633;DHT22;4354;49.832;10.746;2022-08-06T05:04:29;15.60;99.90
8633;DHT22;4354;49.832;10.746;2022-08-06T05:07:11;15.70;99.90
8633;DHT22;4354;49.832;10.746;2022-08-06T05:09:40;15.70;99.90
8633;DHT22;4354;49.832;10.746;2022-08-06T05:12:38;15.70;99.90
8633;DHT22;4354;49.832;10.746;2022-08-06T05:15:36;15.80;99.90
8633;DHT22;4354;49.832;10.746;2022-08-06T05:18:14;15.80;99.90
8633;DHT22;4354;49.832;10.746;2022-08-06T05:21:03;15.90;99.90
8633;DHT22;4354;49.832;10.746;2022-08-06T05:23:38;15.80;99.90
8633;DHT22;4354;49.832;10.746;2022-08-06T05:26:12;15.80;99.90
8633;DHT22;4354;49.832;10.746;2022-08-06T05:28:51;15.90;99.90
8633;DHT22;4354;49.832;10.746;2022-08-06T05:31:34;15.90;99.90
8633;DHT22;4354;49.832;10.746;2022-08-06T05:34:05;15.90;99.90
8633;DHT22;4354;49.832;10.746;2022-08-06T05:36:35;15.90;99.90
8633;DHT22;4354;49.832;10.746;2022-08-06T05:39:02;15.90;99.90
8633;DHT22;4354;49.832;10.746;2022-08-06T05:41:29;16.00;99.90
8633;DHT22;4354;49.832;10.746;2022-08-06T05:44:03;16.00;99.90
8633;DHT22;4354;49.832;10.746;2022-08-06T05:46:35;16.00;99.90
8633;DHT22;4354;49.832;10.746;2022-08-06T05:49:05;16.10;99.90
8633;DHT22;4354;49.832;10.746;2022-08-06T05:52:11;16.10;99.90
8633;DHT22;4354;49.832;10.746;2022-08-06T05:57:28;16.40;99.90
8633;DHT22;4354;49.832;10.746;2022-08-06T06:00:10;16.50;99.90
8633;DHT22;4354;49.832;10.746;2022-08-06T06:03:01;16.70;99.90
8633;DHT22;4354;49.832;10.746;2022-08-06T06:05:30;16.80;99.90
8633;DHT22;4354;49.832;10.746;2022-08-06T06:08:18;17.00;99.90
8633;DHT22;4354;49.832;10.746;2022-08-06T06:11:06;17.10;99.90
8633;DHT22;4354;49.832;10.746;2022-08-06T06:13:37;17.20;99.90
8633;DHT22;4354;49.832;10.746;2022-08-06T06:16:31;17.20;99.90
8633;DHT22;4354;49.832;10.746;2022-08-06T06:19:43;17.20;99.90
8633;DHT22;4354;49.832;10.746;2022-08-06T06:31:33;17.40;99.90
8633;DHT22;4354;49.832;10.746;2022-08-06T06:37:30;17.20;99.90
8633;DHT22;4354;49.832;10.746;2022-08-06T06:40:35;17.10;99.90
8633;DHT22;4354;49.832;10.746;2022-08-06T06:46:39;17.30;99.90
8633;DHT22;4354;49.832;10.746;2022-08-06T06:49:32;17.40;99.90
8633;DHT22;4354;49.832;10.746;2022-08-06T06:52:24;17.60;99.90
8633;DHT22;4354;49.832;10.746;2022-08-06T06:55:05;17.80;99.90
8633;DHT22;4354;49.832;10.746;2022-08-06T06:57:53;17.90;99.90
8633;DHT22;4354;49.832;10.746;2022-08-06T07:00:21;18.00;99.90
8633;DHT22;4354;49.832;10.746;2022-08-06T07:03:11;18.00;99.90
8633;DHT22;4354;49.832;10.746;2022-08-06T07:05:42;18.30;99.90
8633;DHT22;4354;49.832;10.746;2022-08-06T07:08:34;18.50;99.90
8633;DHT22;4354;49.832;10.746;2022-08-06T07:11:09;18.70;99.90
8633;DHT22;4354;49.832;10.746;2022-08-06T07:13:37;18.90;99.90
8633;DHT22;4354;49.832;10.746;2022-08-06T07:16:19;19.00;99.90
8633;DHT22;4354;49.832;10.746;2022-08-06T07:19:03;19.10;99.90
8633;DHT22;4354;49.832;10.746;2022-08-06T07:21:31;19.20;99.90
8633;DHT22;4354;49.832;10.746;2022-08-06T07:23:59;19.40;99.90
8633;DHT22;4354;49.832;10.746;2022-08-06T07:26:46;19.60;99.90
8633;DHT22;4354;49.832;10.746;2022-08-06T07:29:19;19.60;99.90
8633;DHT22;4354;49.832;10.746;2022-08-06T07:32:08;19.70;99.90
8633;DHT22;4354;49.832;10.746;2022-08-06T07:34:55;20.90;99.90
8633;DHT22;4354;49.832;10.746;2022-08-06T07:37:25;22.80;96.90
8633;DHT22;4354;49.832;10.746;2022-08-06T07:40:07;24.30;93.30
8633;DHT22;4354;49.832;10.746;2022-08-06T07:42:42;26.10;82.70
8633;DHT22;4354;49.832;10.746;2022-08-06T07:45:13;27.70;74.40
8633;DHT22;4354;49.832;10.746;2022-08-06T07:47:44;28.70;65.30
8633;DHT22;4354;49.832;10.746;2022-08-06T07:50:23;29.50;60.50
8633;DHT22;4354;49.832;10.746;2022-08-06T07:52:52;30.10;57.60
8633;DHT22;4354;49.832;10.746;2022-08-06T07:55:23;31.40;55.20
8633;DHT22;4354;49.832;10.746;2022-08-06T07:58:07;31.60;52.20
8633;DHT22;4354;49.832;10.746;2022-08-06T08:00:35;31.70;49.60
8633;DHT22;4354;49.832;10.746;2022-08-06T08:03:05;31.90;48.40
8633;DHT22;4354;49.832;10.746;2022-08-06T08:06:11;32.70;46.80
8633;DHT22;4354;49.832;10.746;2022-08-06T08:08:56;33.50;45.70
8633;DHT22;4354;49.832;10.746;2022-08-06T08:11:25;33.60;43.80
8633;DHT22;4354;49.832;10.746;2022-08-06T08:14:15;33.30;44.80
8633;DHT22;4354;49.832;10.746;2022-08-06T08:16:45;33.10;44.40
8633;DHT22;4354;49.832;10.746;2022-08-06T08:19:31;33.00;44.90
8633;DHT22;4354;49.832;10.746;2022-08-06T08:22:13;33.80;43.40
8633;DHT22;4354;49.832;10.746;2022-08-06T08:24:43;34.10;42.30
8633;DHT22;4354;49.832;10.746;2022-08-06T08:27:20;33.30;42.70
8633;DHT22;4354;49.832;10.746;2022-08-06T08:29:51;33.50;42.30
8633;DHT22;4354;49.832;10.746;2022-08-06T08:32:23;33.70;42.60
8633;DHT22;4354;49.832;10.746;2022-08-06T08:34:53;34.20;42.00
8633;DHT22;4354;49.832;10.746;2022-08-06T08:37:23;34.30;41.00
8633;DHT22;4354;49.832;10.746;2022-08-06T08:39:49;34.70;39.60
8633;DHT22;4354;49.832;10.746;2022-08-06T08:42:33;34.10;39.70
8633;DHT22;4354;49.832;10.746;2022-08-06T08:45:04;34.40;40.30
8633;DHT22;4354;49.832;10.746;2022-08-06T08:47:46;34.10;40.30
8633;DHT22;4354;49.832;10.746;2022-08-06T08:50:29;34.50;40.10
8633;DHT22;4354;49.832;10.746;2022-08-06T08:53:11;35.50;39.30
8633;DHT22;4354;49.832;10.746;2022-08-06T08:55:41;36.00;38.50
8633;DHT22;4354;49.832;10.746;2022-08-06T08:58:28;35.60;38.80
8633;DHT22;4354;49.832;10.746;2022-08-06T09:01:18;35.00;39.00
8633;DHT22;4354;49.832;10.746;2022-08-06T09:04:05;34.70;38.80
8633;DHT22;4354;49.832;10.746;2022-08-06T09:06:32;35.00;38.40
8633;DHT22;4354;49.832;10.746;2022-08-06T09:09:06;35.90;38.10
8633;DHT22;4354;49.832;10.746;2022-08-06T09:11:41;36.60;37.20
8633;DHT22;4354;49.832;10.746;2022-08-06T09:14:28;36.80;37.00
8633;DHT22;4354;49.832;10.746;2022-08-06T09:17:00;36.30;36.70
8633;DHT22;4354;49.832;10.746;2022-08-06T09:19:29;36.20;36.40
8633;DHT22;4354;49.832;10.746;2022-08-06T09:22:05;35.70;37.40
8633;DHT22;4354;49.832;10.746;2022-08-06T09:24:35;36.00;37.40
8633;DHT22;4354;49.832;10.746;2022-08-06T09:27:14;35.90;37.00
8633;DHT22;4354;49.832;10.746;2022-08-06T09:30:05;35.50;37.60
8633;DHT22;4354;49.832;10.746;2022-08-06T09:32:55;35.30;37.90
8633;DHT22;4354;49.832;10.746;2022-08-06T09:35:28;36.40;35.70
8633;DHT22;4354;49.832;10.746;2022-08-06T09:38:13;36.50;35.80
8633;DHT22;4354;49.832;10.746;2022-08-06T09:41:10;36.50;36.50
8633;DHT22;4354;49.832;10.746;2022-08-06T09:43:46;36.00;36.60
8633;DHT22;4354;49.832;10.746;2022-08-06T09:46:41;37.10;35.70
8633;DHT22;4354;49.832;10.746;2022-08-06T09:49:15;37.90;33.90
8633;DHT22;4354;49.832;10.746;2022-08-06T09:52:12;38.40;33.40
8633;DHT22;4354;49.832;10.746;2022-08-06T09:54:40;38.20;34.10
8633;DHT22;4354;49.832;10.746;2022-08-06T09:57:08;38.90;32.70
8633;DHT22;4354;49.832;10.746;2022-08-06T09:59:44;39.10;32.40
8633;DHT22;4354;49.832;10.746;2022-08-06T10:02:18;39.60;31.70
8633;DHT22;4354;49.832;10.746;2022-08-06T10:05:09;39.40;31.40
8633;DHT22;4354;49.832;10.746;2022-08-06T10:07:44;39.00;31.60
8633;DHT22;4354;49.832;10.746;2022-08-06T10:10:12;39.30;31.70
8633;DHT22;4354;49.832;10.746;2022-08-06T10:13:20;39.80;31.10
8633;DHT22;4354;49.832;10.746;2022-08-06T10:15:49;38.10;31.70
8633;DHT22;4354;49.832;10.746;2022-08-06T10:18:32;37.70;32.90
8633;DHT22;4354;49.832;10.746;2022-08-06T10:21:21;37.80;33.00
8633;DHT22;4354;49.832;10.746;2022-08-06T10:23:54;37.60;32.40
8633;DHT22;4354;49.832;10.746;2022-08-06T10:26:32;38.10;31.90
8633;DHT22;4354;49.832;10.746;2022-08-06T10:29:07;37.60;32.40
8633;DHT22;4354;49.832;10.746;2022-08-06T10:31:35;37.10;32.50
8633;DHT22;4354;49.832;10.746;2022-08-06T10:34:06;36.60;33.70
8633;DHT22;4354;49.832;10.746;2022-08-06T10:36:45;36.80;32.30
8633;DHT22;4354;49.832;10.746;2022-08-06T10:39:16;37.00;32.40
8633;DHT22;4354;49.832;10.746;2022-08-06T10:42:08;37.40;32.10
8633;DHT22;4354;49.832;10.746;2022-08-06T10:44:49;37.50;31.90
8633;DHT22;4354;49.832;10.746;2022-08-06T10:47:17;37.70;31.80
8633;DHT22;4354;49.832;10.746;2022-08-06T10:50:05;36.90;31.50
8633;DHT22;4354;49.832;10.746;2022-08-06T10:52:52;36.80;32.30
8633;DHT22;4354;49.832;10.746;2022-08-06T10:55:21;37.50;31.10
8633;DHT22;4354;49.832;10.746;2022-08-06T10:57:49;37.60;31.70
8633;DHT22;4354;49.832;10.746;2022-08-06T11:00:17;37.90;30.80
8633;DHT22;4354;49.832;10.746;2022-08-06T11:03:07;38.50;30.70
8633;DHT22;4354;49.832;10.746;2022-08-06T11:05:40;38.90;30.00
8633;DHT22;4354;49.832;10.746;2022-08-06T11:11:43;38.00;30.20
8633;DHT22;4354;49.832;10.746;2022-08-06T11:14:35;37.60;30.10
8633;DHT22;4354;49.832;10.746;2022-08-06T11:17:03;37.60;29.80
8633;DHT22;4354;49.832;10.746;2022-08-06T11:19:42;37.60;30.20
8633;DHT22;4354;49.832;10.746;2022-08-06T11:22:37;37.40;30.00
8633;DHT22;4354;49.832;10.746;2022-08-06T11:25:45;38.10;30.10
8633;DHT22;4354;49.832;10.746;2022-08-06T11:28:15;37.00;29.70
8633;DHT22;4354;49.832;10.746;2022-08-06T11:30:50;36.90;29.90
8633;DHT22;4354;49.832;10.746;2022-08-06T11:33:20;36.70;30.40
8633;DHT22;4354;49.832;10.746;2022-08-06T11:35:49;36.10;30.00
8633;DHT22;4354;49.832;10.746;2022-08-06T11:41:27;35.20;30.70
8633;DHT22;4354;49.832;10.746;2022-08-06T11:44:16;34.60;30.80
8633;DHT22;4354;49.832;10.746;2022-08-06T11:46:48;34.20;32.00
8633;DHT22;4354;49.832;10.746;2022-08-06T11:49:19;34.30;32.10
8633;DHT22;4354;49.832;10.746;2022-08-06T11:52:00;34.10;31.90
8633;DHT22;4354;49.832;10.746;2022-08-06T11:54:59;34.00;31.90
8633;DHT22;4354;49.832;10.746;2022-08-06T11:57:24;33.30;32.50
8633;DHT22;4354;49.832;10.746;2022-08-06T12:00:18;33.10;32.20
8633;DHT22;4354;49.832;10.746;2022-08-06T12:02:52;32.70;32.10
8633;DHT22;4354;49.832;10.746;2022-08-06T12:08:11;32.70;31.80
8633;DHT22;4354;49.832;10.746;2022-08-06T12:11:23;32.90;32.20
8633;DHT22;4354;49.832;10.746;2022-08-06T12:14:03;32.40;32.30
8633;DHT22;4354;49.832;10.746;2022-08-06T12:16:51;31.90;33.10
8633;DHT22;4354;49.832;10.746;2022-08-06T12:19:21;31.20;33.60
8633;DHT22;4354;49.832;10.746;2022-08-06T12:21:53;30.60;34.70
8633;DHT22;4354;49.832;10.746;2022-08-06T12:24:24;29.60;35.10
8633;DHT22;4354;49.832;10.746;2022-08-06T12:27:12;29.00;35.80
8633;DHT22;4354;49.832;10.746;2022-08-06T12:29:41;29.10;36.70
8633;DHT22;4354;49.832;10.746;2022-08-06T12:34:58;29.20;36.50
8633;DHT22;4354;49.832;10.746;2022-08-06T12:37:43;28.60;35.40
8633;DHT22;4354;49.832;10.746;2022-08-06T12:40:17;28.50;36.80
8633;DHT22;4354;49.832;10.746;2022-08-06T12:42:51;28.40;35.80
8633;DHT22;4354;49.832;10.746;2022-08-06T12:45:25;28.40;35.40
8633;DHT22;4354;49.832;10.746;2022-08-06T12:48:12;28.20;34.70
8633;DHT22;4354;49.832;10.746;2022-08-06T12:50:43;28.50;34.20
8633;DHT22;4354;49.832;10.746;2022-08-06T12:53:13;28.30;34.00
8633;DHT22;4354;49.832;10.746;2022-08-06T12:55:51;28.20;35.30
8633;DHT22;4354;49.832;10.746;2022-08-06T12:58:29;28.30;36.70
8633;DHT22;4354;49.832;10.746;2022-08-06T13:01:16;28.50;35.50
8633;DHT22;4354;49.832;10.746;2022-08-06T13:04:06;28.30;35.30
8633;DHT22;4354;49.832;10.746;2022-08-06T13:06:42;28.60;36.20
8633;DHT22;4354;49.832;10.746;2022-08-06T13:09:12;28.50;35.50
8633;DHT22;4354;49.832;10.746;2022-08-06T13:11:40;28.60;35.60
8633;DHT22;4354;49.832;10.746;2022-08-06T13:14:10;28.40;36.30
8633;DHT22;4354;49.832;10.746;2022-08-06T13:16:46;28.50;35.90
8633;DHT22;4354;49.832;10.746;2022-08-06T13:19:22;28.20;35.80
8633;DHT22;4354;49.832;10.746;2022-08-06T13:22:05;28.10;36.20
8633;DHT22;4354;49.832;10.746;2022-08-06T13:24:36;27.70;35.70
8633;DHT22;4354;49.832;10.746;2022-08-06T13:27:34;27.90;35.10
8633;DHT22;4354;49.832;10.746;2022-08-06T13:30:06;28.10;36.40
8633;DHT22;4354;49.832;10.746;2022-08-06T13:32:53;27.80;35.50
8633;DHT22;4354;49.832;10.746;2022-08-06T13:35:27;27.90;35.10
8633;DHT22;4354;49.832;10.746;2022-08-06T13:37:58;27.90;34.10
8633;DHT22;4354;49.832;10.746;2022-08-06T13:40:48;27.80;36.40
8633;DHT22;4354;49.832;10.746;2022-08-06T13:43:39;27.90;35.10
8633;DHT22;4354;49.832;10.746;2022-08-06T13:46:19;27.70;34.90
8633;DHT22;4354;49.832;10.746;2022-08-06T13:48:57;27.90;35.50
8633;DHT22;4354;49.832;10.746;2022-08-06T13:51:28;27.90;35.70
8633;DHT22;4354;49.832;10.746;2022-08-06T13:54:04;27.90;35.20
8633;DHT22;4354;49.832;10.746;2022-08-06T13:56:48;27.60;35.60
8633;DHT22;4354;49.832;10.746;2022-08-06T13:59:23;27.60;34.00
8633;DHT22;4354;49.832;10.746;2022-08-06T14:02:09;27.60;34.50
8633;DHT22;4354;49.832;10.746;2022-08-06T14:04:38;27.30;36.90
8633;DHT22;4354;49.832;10.746;2022-08-06T14:07:06;27.20;37.20
8633;DHT22;4354;49.832;10.746;2022-08-06T14:09:33;27.20;37.40
8633;DHT22;4354;49.832;10.746;2022-08-06T14:12:20;27.20;36.80
8633;DHT22;4354;49.832;10.746;2022-08-06T14:14:55;27.20;36.70
8633;DHT22;4354;49.832;10.746;2022-08-06T14:17:22;27.40;36.50
8633;DHT22;4354;49.832;10.746;2022-08-06T14:20:01;27.50;36.50
8633;DHT22;4354;49.832;10.746;2022-08-06T14:22:44;27.50;36.70
8633;DHT22;4354;49.832;10.746;2022-08-06T14:25:14;27.50;37.10
8633;DHT22;4354;49.832;10.746;2022-08-06T14:27:41;27.50;36.40
8633;DHT22;4354;49.832;10.746;2022-08-06T14:30:11;27.30;36.00
8633;DHT22;4354;49.832;10.746;2022-08-06T14:32:59;27.30;36.80
8633;DHT22;4354;49.832;10.746;2022-08-06T14:35:37;27.30;35.40
8633;DHT22;4354;49.832;10.746;2022-08-06T14:38:17;27.30;35.10
8633;DHT22;4354;49.832;10.746;2022-08-06T14:40:44;27.20;35.50
8633;DHT22;4354;49.832;10.746;2022-08-06T14:43:30;27.10;37.00
8633;DHT22;4354;49.832;10.746;2022-08-06T14:46:31;26.70;37.90
8633;DHT22;4354;49.832;10.746;2022-08-06T14:48:59;26.80;37.10
8633;DHT22;4354;49.832;10.746;2022-08-06T14:51:41;26.70;36.70
8633;DHT22;4354;49.832;10.746;2022-08-06T14:54:28;26.70;36.30
8633;DHT22;4354;49.832;10.746;2022-08-06T14:57:00;26.70;36.20
8633;DHT22;4354;49.832;10.746;2022-08-06T14:59:28;26.80;36.30
8633;DHT22;4354;49.832;10.746;2022-08-06T15:02:08;26.70;36.70
8633;DHT22;4354;49.832;10.746;2022-08-06T15:04:35;26.20;36.10
8633;DHT22;4354;49.832;10.746;2022-08-06T15:07:03;26.00;36.60
8633;DHT22;4354;49.832;10.746;2022-08-06T15:09:30;25.90;37.50
8633;DHT22;4354;49.832;10.746;2022-08-06T15:12:18;25.90;38.00
8633;DHT22;4354;49.832;10.746;2022-08-06T15:15:09;26.00;37.70
8633;DHT22;4354;49.832;10.746;2022-08-06T15:17:40;26.10;37.50
8633;DHT22;4354;49.832;10.746;2022-08-06T15:20:27;26.10;37.30
8633;DHT22;4354;49.832;10.746;2022-08-06T15:22:54;25.90;37.90
8633;DHT22;4354;49.832;10.746;2022-08-06T15:25:23;25.90;37.50
8633;DHT22;4354;49.832;10.746;2022-08-06T15:28:11;26.00;36.60
8633;DHT22;4354;49.832;10.746;2022-08-06T15:30:38;26.20;36.30
8633;DHT22;4354;49.832;10.746;2022-08-06T15:33:12;26.10;36.70
8633;DHT22;4354;49.832;10.746;2022-08-06T15:35:39;25.90;36.60
8633;DHT22;4354;49.832;10.746;2022-08-06T15:38:27;26.00;37.50
8633;DHT22;4354;49.832;10.746;2022-08-06T15:40:59;26.10;36.50
8633;DHT22;4354;49.832;10.746;2022-08-06T15:43:27;26.20;36.80
8633;DHT22;4354;49.832;10.746;2022-08-06T15:46:11;26.10;36.70
8633;DHT22;4354;49.832;10.746;2022-08-06T15:48:38;26.10;36.90
8633;DHT22;4354;49.832;10.746;2022-08-06T15:51:24;26.10;36.40
8633;DHT22;4354;49.832;10.746;2022-08-06T15:53:58;26.10;36.70
8633;DHT22;4354;49.832;10.746;2022-08-06T15:56:26;25.80;37.10
8633;DHT22;4354;49.832;10.746;2022-08-06T15:59:13;25.80;37.20
8633;DHT22;4354;49.832;10.746;2022-08-06T16:01:47;25.80;36.90
8633;DHT22;4354;49.832;10.746;2022-08-06T16:04:30;25.60;37.10
8633;DHT22;4354;49.832;10.746;2022-08-06T16:07:03;25.50;37.10
8633;DHT22;4354;49.832;10.746;2022-08-06T16:09:32;25.30;37.50
8633;DHT22;4354;49.832;10.746;2022-08-06T16:12:19;25.40;37.80
8633;DHT22;4354;49.832;10.746;2022-08-06T16:14:47;25.30;38.20
8633;DHT22;4354;49.832;10.746;2022-08-06T16:17:24;25.20;38.20
8633;DHT22;4354;49.832;10.746;2022-08-06T16:20:15;25.30;38.20
8633;DHT22;4354;49.832;10.746;2022-08-06T16:22:50;25.40;38.20
8633;DHT22;4354;49.832;10.746;2022-08-06T16:25:18;25.40;38.40
8633;DHT22;4354;49.832;10.746;2022-08-06T16:27:46;25.40;38.10
8633;DHT22;4354;49.832;10.746;2022-08-06T16:30:16;25.30;37.60
8633;DHT22;4354;49.832;10.746;2022-08-06T16:32:43;25.00;37.80
8633;DHT22;4354;49.832;10.746;2022-08-06T16:35:11;25.00;38.20
8633;DHT22;4354;49.832;10.746;2022-08-06T16:37:43;25.00;38.20
8633;DHT22;4354;49.832;10.746;2022-08-06T16:40:18;24.90;39.10
8633;DHT22;4354;49.832;10.746;2022-08-06T16:42:46;24.80;39.20
8633;DHT22;4354;49.832;10.746;2022-08-06T16:45:16;24.80;39.60
8633;DHT22;4354;49.832;10.746;2022-08-06T16:47:45;24.80;39.40
8633;DHT22;4354;49.832;10.746;2022-08-06T16:50:32;24.70;39.20
8633;DHT22;4354;49.832;10.746;2022-08-06T16:53:06;24.50;39.10
8633;DHT22;4354;49.832;10.746;2022-08-06T16:55:54;24.40;39.50
8633;DHT22;4354;49.832;10.746;2022-08-06T16:58:21;24.40;39.20
8633;DHT22;4354;49.832;10.746;2022-08-06T17:01:07;24.40;39.40
8633;DHT22;4354;49.832;10.746;2022-08-06T17:03:55;24.30;39.70
8633;DHT22;4354;49.832;10.746;2022-08-06T17:06:27;24.20;39.70
8633;DHT22;4354;49.832;10.746;2022-08-06T17:09:01;24.20;40.80
8633;DHT22;4354;49.832;10.746;2022-08-06T17:11:43;24.00;40.30
8633;DHT22;4354;49.832;10.746;2022-08-06T17:14:25;23.90;40.40
8633;DHT22;4354;49.832;10.746;2022-08-06T17:16:53;23.90;41.30
8633;DHT22;4354;49.832;10.746;2022-08-06T17:19:21;23.80;40.60
8633;DHT22;4354;49.832;10.746;2022-08-06T17:21:48;23.70;40.40
8633;DHT22;4354;49.832;10.746;2022-08-06T17:24:30;23.60;40.40
8633;DHT22;4354;49.832;10.746;2022-08-06T17:27:06;23.60;40.80
8633;DHT22;4354;49.832;10.746;2022-08-06T17:29:53;23.50;41.20
8633;DHT22;4354;49.832;10.746;2022-08-06T17:32:20;23.40;42.90
8633;DHT22;4354;49.832;10.746;2022-08-06T17:35:10;23.20;42.60